Latest Coastal Weather Observations for Gove Airport

IDD60701

Issued at 8:31 pm CST Thursday 19 September 2019 (issued every 10 minutes, with the page automatically refreshed every 10 minutes)

About coastal observations | Map of coastal stations | Coastal observations for NT | Marine services | Other Formats
Station Details ID: 014508 Name: GOVE AIRPORT Lat: -12.27 Lon: 136.82 Height: 51.6 m
Data from the previous 72 hours. | See also: Recent months at Gove Airport
Date/Time
CST
Wind Sea
Height
m
Swell Vis
km
Cloud Weather Temp
°C
Press
hPa
Rain since
9am
mm
Dir  Spd
kts
Gust
kts
Height
m
Period
s
Dir
19/08:30pm SE 5 6 - - - - 10 Partly cloudy - 22.8 1014.0 0.0
19/08:00pm ESE 5 7 - - - - 10 - - 23.1 1013.8 0.0
19/07:30pm SE 6 7 - - - - 10 - - 23.3 1013.7 0.0
19/07:00pm SSE 7 9 - - - - 10 - - 23.7 1013.4 0.0
19/06:30pm SSE 8 11 - - - - 10 - - 24.4 1013.2 0.0
19/06:00pm ESE 8 11 - - - - 10 - - 25.4 1012.9 0.0
19/05:30pm ESE 10 12 - - - - 10 - - 26.3 1012.7 0.0
19/05:00pm ESE 10 13 - - - - 10 - - 27.3 1012.5 0.0
19/04:30pm ESE 8 11 - - - - 10 - - 27.6 1012.6 0.0
19/04:00pm ESE 10 14 - - - - 10 - - 28.0 1012.7 0.0
19/03:30pm SE 10 15 - - - - 10 Mostly clear - 29.1 1012.8 0.0
19/03:00pm E 10 15 - - - - 10 Mostly clear - 28.8 1012.9 0.0
19/02:30pm ESE 10 16 - - - - 10 Mostly clear - 29.5 1013.1 0.0
19/02:00pm E 9 16 - - - - 10 - - 29.5 1013.3 0.0
19/01:30pm E 9 16 - - - - 10 - - 28.6 1013.7 0.0
19/01:00pm E 8 13 - - - - 10 Mostly clear - 28.8 1014.1 0.0
19/12:30pm E 9 13 - - - - 10 Mostly clear - 29.0 1014.5 0.0
19/12:00pm NE 9 14 - - - - 10 Mostly clear - 28.4 1015.1 0.0
19/11:30am E 10 14 - - - - 10 Mostly clear - 28.3 1015.5 0.0
19/11:00am ENE 10 17 - - - - 10 - - 28.8 1016.0 0.0
19/10:30am ENE 11 19 - - - - 10 Partly cloudy - 28.0 1016.2 0.0
19/10:00am NE 9 13 - - - - 10 Mostly clear - 27.5 1016.2 0.0
19/09:30am NE 7 10 - - - - 10 Partly cloudy - 26.5 1016.5 0.0
19/09:00am NE 8 11 - - - - 10 Partly cloudy - 26.0 1016.7 0.0
19/08:30am E 8 12 - - - - 10 Partly cloudy - 25.4 1016.5 0.0
19/08:00am E 6 7 - - - - 10 - - 24.2 1016.2 0.0
19/07:30am E 5 7 - - - - 10 Partly cloudy - 21.9 1016.2 0.0
19/07:00am E 4 5 - - - - 10 Partly cloudy - 18.8 1016.0 0.0
19/06:30am CALM 0 0 - - - - 10 - - 18.6 1015.5 0.0
19/06:00am CALM 0 0 - - - - 10 - - 17.7 1015.1 0.0
19/05:40am CALM 0 0 - - - - 10 Partly cloudy - 17.9 1015.0 0.0
19/05:30am ENE 2 4 - - - - 10 Partly cloudy - 19.1 1014.9 0.0
19/05:19am NE 3 4 - - - - 10 Partly cloudy - 18.2 1014.8 0.0
19/05:17am NE 3 4 - - - - 10 Partly cloudy - 18.1 1014.8 0.0
19/05:05am CALM 0 4 - - - - 10 Partly cloudy - 17.7 1014.6 0.0
19/05:00am CALM 0 0 - - - - 10 Partly cloudy - 17.5 1014.6 0.0
19/04:42am CALM 0 0 - - - - 10 Partly cloudy - 17.8 1014.3 0.0
19/04:30am CALM 0 0 - - - - 1 Cloudy - 17.7 1014.1 0.0
19/04:00am CALM 0 0 - - - - 0.2 Cloudy - 17.4 1013.6 0.0
19/03:40am SW 1 3 - - - - 4 Partly cloudy - 17.2 1013.5 0.0
19/03:37am SW 2 3 - - - - 10 Partly cloudy - 17.4 1013.5 0.0
19/03:30am SW 3 3 - - - - 10 Partly cloudy - 17.6 1013.5 0.0
19/03:18am SW 4 4 - - - - 10 Partly cloudy - 17.9 1013.5 0.0
19/03:12am SW 4 5 - - - - 10 Partly cloudy - 18.1 1013.5 0.0
19/03:00am SW 4 5 - - - - 5 Mostly cloudy - 18.1 1013.6 0.0
19/02:46am SW 4 5 - - - - 5 Partly cloudy - 18.3 1013.7 0.0
19/02:41am SSW 4 5 - - - - 9 Partly cloudy - 18.3 1013.8 0.0
19/02:39am SSW 4 5 - - - - 9 Partly cloudy - 18.3 1013.8 0.0
19/02:30am SSW 3 5 - - - - 4 Partly cloudy - 18.6 1014.0 0.0
19/02:19am CALM 0 0 - - - - 4 - - 18.4 1014.1 0.0
19/02:00am CALM 0 0 - - - - 10 - - 18.6 1014.2 0.0
19/01:49am CALM 0 0 - - - - 10 - - 18.8 1014.3 0.0
19/01:35am CALM 0 0 - - - - 6 - - 19.4 1014.5 0.0
19/01:30am CALM 0 0 - - - - 7 - - 19.4 1014.5 0.0
19/01:00am CALM 0 0 - - - - 10 - - 19.7 1015.0 0.0
19/12:30am CALM 0 0 - - - - 10 - - 19.6 1015.2 0.0
19/12:00am SSW 3 4 - - - - 10 - - 20.1 1015.4 0.0
 
Date/Time
CST
Wind Sea
Height
m
Swell Vis
km
Cloud Weather Temp
°C
Press
hPa
Rain since
9am
mm
Dir  Spd
kts
Gust
kts
Height
m
Period
s
Dir
18/11:30pm SSW 4 4 - - - - 10 - - 20.0 1015.7 0.0
18/11:00pm ESE 3 4 - - - - 10 - - 20.5 1016.1 0.0
18/10:30pm SE 3 4 - - - - 10 - - 21.4 1016.1 0.0
18/10:00pm SE 4 5 - - - - 10 - - 21.5 1016.1 0.0
18/09:30pm SE 4 5 - - - - 10 - - 21.9 1016.1 0.0
18/09:00pm SE 5 6 - - - - 10 - - 22.4 1016.0 0.0
18/08:30pm SE 5 6 - - - - 10 - - 22.8 1015.8 0.0
18/08:00pm SE 7 9 - - - - 10 - - 23.3 1015.7 0.0
18/07:30pm SSE 7 11 - - - - 10 - - 23.4 1015.4 0.0
18/07:00pm SSE 7 9 - - - - 10 - - 23.8 1015.4 0.0
18/06:30pm SE 9 11 - - - - 10 - - 24.4 1015.2 0.0
18/06:00pm SE 10 12 - - - - 10 - - 25.3 1015.1 0.0
18/05:30pm ESE 9 12 - - - - 10 - - 26.6 1015.1 0.0
18/05:00pm E 8 11 - - - - 10 - - 27.2 1014.8 0.0
18/04:30pm E 6 10 - - - - 10 - - 28.3 1014.6 0.0
18/04:00pm E 8 11 - - - - 10 - - 28.1 1014.8 0.0
18/03:30pm E 10 14 - - - - 10 Mostly clear - 27.8 1015.0 0.0
18/03:00pm ENE 10 13 - - - - 10 Mostly clear - 28.4 1015.0 0.0
18/02:30pm E 9 12 - - - - 10 Mostly clear - 29.5 1015.2 0.0
18/02:00pm E 9 13 - - - - 10 Mostly clear - 30.2 1015.3 0.0
18/01:30pm ENE 9 15 - - - - 10 - - 30.1 1015.5 0.0
18/01:00pm E 9 12 - - - - 10 Mostly clear - 29.2 1015.8 0.0
18/12:30pm ENE 10 13 - - - - 10 Mostly clear - 29.6 1016.2 0.0
18/12:00pm E 9 14 - - - - 10 - - 29.9 1016.7 0.0
18/11:30am E 8 11 - - - - 10 Mostly clear - 29.5 1017.1 0.0
18/11:00am ESE 8 15 - - - - 10 Mostly clear - 29.0 1017.6 0.0
18/10:30am ESE 7 13 - - - - 10 Mostly clear - 27.2 1018.0 0.0
18/10:00am ESE 9 12 - - - - 10 Partly cloudy - 27.1 1018.3 0.0
18/09:30am E 12 16 - - - - 10 Partly cloudy - 25.9 1018.5 0.0
18/09:00am E 10 12 - - - - 10 Partly cloudy - 25.5 1018.3 0.0
18/08:30am E 11 14 - - - - 10 Partly cloudy - 25.3 1018.1 0.0
18/08:00am E 6 9 - - - - 10 - - 23.5 1017.8 0.0
18/07:30am E 5 7 - - - - 10 - - 21.8 1017.2 0.0
18/07:00am ESE 4 4 - - - - 10 - - 20.5 1016.9 0.0
18/06:30am E 3 4 - - - - 10 - - 18.5 1016.6 0.0
18/06:00am E 1 4 - - - - 10 - - 18.4 1016.2 0.0
18/05:30am CALM 0 0 - - - - 10 - - 17.7 1015.7 0.0
18/05:00am CALM 0 0 - - - - 10 - - 18.4 1015.4 0.0
18/04:42am CALM 0 0 - - - - 10 - - 18.0 1015.3 0.0
18/04:30am CALM 0 0 - - - - 4 - - 18.2 1015.1 0.0
18/04:22am CALM 0 0 - - - - 6 - - 17.9 1015.0 0.0
18/04:00am CALM 0 0 - - - - 10 - - 17.9 1014.9 0.0
18/03:30am CALM 0 3 - - - - 10 - - 17.9 1014.8 0.0
18/03:00am SSE 4 5 - - - - 10 - - 18.7 1015.0 0.0
18/02:30am SSE 4 5 - - - - 10 - - 18.9 1015.2 0.0
18/02:00am ESE 2 5 - - - - 10 - - 18.8 1015.5 0.0
18/01:30am CALM 0 0 - - - - 10 - - 18.2 1015.8 0.0
18/01:00am CALM 0 0 - - - - 10 - - 18.1 1015.9 0.0
18/12:30am CALM 0 0 - - - - 10 - - 18.7 1016.2 0.0
18/12:00am S 4 5 - - - - 10 - - 19.0 1016.5 0.0
 
Date/Time
CST
Wind Sea
Height
m
Swell Vis
km
Cloud Weather Temp
°C
Press
hPa
Rain since
9am
mm
Dir  Spd
kts
Gust
kts
Height
m
Period
s
Dir
17/11:30pm S 5 5 - - - - 10 - - 19.1 1016.8 0.0
17/11:00pm CALM 0 3 - - - - 10 - - 19.1 1017.0 0.0
17/10:30pm CALM 0 0 - - - - 10 - - 19.5 1017.2 0.0
17/10:00pm CALM 0 0 - - - - 10 - - 19.9 1017.1 0.0
17/09:30pm CALM 0 0 - - - - 10 - - 20.7 1016.8 0.0
17/09:00pm SE 3 4 - - - - 10 - - 21.2 1016.6 0.0
17/08:30pm CALM 0 0 - - - - 10 - - 21.7 1016.5 0.0
17/08:00pm SSE 3 3 - - - - 10 - - 22.6 1016.0 0.0
17/07:44pm SSE 3 4 - - - - 10 - - 23.0 1016.0 0.0
17/07:30pm SSE 4 5 - - - - 4 - - 23.2 1015.8 0.0
17/07:24pm SSE 4 5 - - - - 6 - - 23.3 1015.7 0.0
17/07:00pm SE 5 7 - - - - 10 - - 23.7 1015.7 0.0
17/06:30pm ESE 6 7 - - - - 10 Partly cloudy - 24.2 1015.6 0.0
17/06:00pm ESE 7 10 - - - - 10 Cloudy - 25.1 1015.2 0.0
17/05:30pm E 9 11 - - - - 10 Partly cloudy - 25.7 1015.0 0.0
17/05:00pm E 10 13 - - - - 10 Partly cloudy - 26.2 1014.9 0.0
17/04:30pm ESE 11 14 - - - - 10 Partly cloudy - 26.3 1015.0 0.0
17/04:00pm E 9 13 - - - - 10 Partly cloudy - 27.2 1015.0 0.0
17/03:30pm ESE 12 17 - - - - 10 Partly cloudy - 27.8 1015.0 0.0
17/03:00pm ESE 12 16 - - - - 10 Mostly cloudy - 27.8 1015.1 0.0
17/02:30pm ESE 13 18 - - - - 10 Partly cloudy - 27.9 1015.4 0.0
17/02:00pm ESE 13 18 - - - - 10 Partly cloudy - 28.0 1015.6 0.0
17/01:30pm ESE 14 20 - - - - 10 Partly cloudy - 28.3 1016.0 0.0
17/01:00pm ESE 13 19 - - - - 10 Partly cloudy - 27.4 1016.3 0.0
17/12:30pm ESE 14 19 - - - - 10 Partly cloudy - 27.6 1016.7 0.0
17/12:00pm E 13 20 - - - - 10 Cloudy - 28.4 1016.9 0.0
17/11:30am E 14 19 - - - - 10 Partly cloudy - 27.5 1017.2 0.0
17/11:00am ESE 13 18 - - - - 10 Partly cloudy - 26.6 1017.5 0.0
17/10:30am ESE 13 18 - - - - 10 Partly cloudy - 28.2 1017.8 0.0
17/10:00am ESE 10 16 - - - - 10 Partly cloudy - 26.6 1017.9 0.0
17/09:30am SE 12 15 - - - - 10 Partly cloudy - 26.6 1017.9 0.0
17/09:00am ESE 10 14 - - - - 10 Cloudy - 25.9 1017.7 0.0
17/08:30am SE 9 12 - - - - 10 Partly cloudy - 24.8 1017.4 0.0
17/08:00am SE 7 8 - - - - 10 Partly cloudy - 24.2 1017.2 0.0
17/07:30am ESE 1 6 - - - - 10 Partly cloudy - 22.0 1016.8 0.0
17/07:00am CALM 0 0 - - - - 10 - - 20.7 1016.3 0.0
17/06:30am S 3 3 - - - - 10 - - 19.4 1015.9 0.0
17/06:00am SSE 2 5 - - - - 10 - - 19.8 1015.4 0.0
17/05:30am SSE 5 6 - - - - 10 Partly cloudy - 20.8 1015.3 0.0
17/05:00am SE 4 5 - - - - 10 Partly cloudy - 19.7 1015.2 0.0
17/04:30am SSE 3 4 - - - - 10 Partly cloudy - 19.3 1014.9 0.0
17/04:00am SSE 4 4 - - - - 10 - - 19.3 1014.7 0.0
17/03:30am S 3 4 - - - - 10 - - 19.0 1014.5 0.0
17/03:00am S 3 4 - - - - 10 - - 19.2 1014.5 0.0
17/02:30am SSW 4 6 - - - - 10 - - 19.1 1014.4 0.0
17/02:00am SSW 3 4 - - - - 10 - - 19.2 1014.5 0.0
17/01:30am SSW 4 5 - - - - 10 - - 19.4 1014.9 0.0
17/01:00am CALM 0 0 - - - - 10 Partly cloudy - 19.3 1015.1 0.0
17/12:30am S 1 3 - - - - 10 Partly cloudy - 19.3 1015.2 0.0
17/12:00am SSE 4 5 - - - - 10 Partly cloudy - 19.1 1015.4 0.0
 
Date/Time
CST
Wind Sea
Height
m
Swell Vis
km
Cloud Weather Temp
°C
Press
hPa
Rain since
9am
mm
Dir  Spd
kts
Gust
kts
Height
m
Period
s
Dir
16/11:30pm SSE 4 5 - - - - 10 - - 20.7 1015.6 0.0
16/11:00pm SE 5 5 - - - - 10 Partly cloudy - 20.8 1015.7 0.0
16/10:30pm SSE 4 5 - - - - 10 - - 20.6 1015.9 0.0
16/10:00pm SSE 4 6 - - - - 10 - - 21.4 1016.0 0.0
16/09:30pm SSE 4 5 - - - - 10 - - 21.4 1016.1 0.0
16/09:00pm SE 5 5 - - - - 10 - - 21.6 1015.8 0.0

Other formats

Comma delimited format used in spreadsheet applications
http://www.bom.gov.au/fwo/IDD60701/IDD60701.94150.axf

JavaScript Object Notation format (JSON) in row-major order
http://www.bom.gov.au/fwo/IDD60701/IDD60701.94150.json

Data quality

Most of these data are generated automatically and are frequently updated. Quality checks on data are not normally performed. It is possible for incorrect values to appear. Refer to information at About Latest Weather Observations and please check the disclaimer before using these data.